createdAt,value
2018-07-22T00:01:00.208Z,64.00
2018-07-22T00:04:24.685Z,64.40
2018-07-22T00:07:55.643Z,65.00
2018-07-22T00:11:20.177Z,65.10
2018-07-22T00:14:44.675Z,65.40
2018-07-22T00:18:09.139Z,65.10
2018-07-22T00:21:33.617Z,65.40
2018-07-22T00:24:58.069Z,65.80
2018-07-22T00:28:22.510Z,66.20
2018-07-22T00:31:47.029Z,66.50
2018-07-22T00:38:36.805Z,67.40
2018-07-22T00:42:01.288Z,67.60
2018-07-22T00:45:25.769Z,67.80
2018-07-22T00:48:50.197Z,67.90
2018-07-22T00:52:14.669Z,67.90
2018-07-22T00:55:39.133Z,68.20
2018-07-22T00:59:03.572Z,68.60
2018-07-22T01:02:28.075Z,68.80
2018-07-22T01:05:52.551Z,69.30
2018-07-22T01:09:16.983Z,70.20
2018-07-22T01:12:41.438Z,69.80
2018-07-22T01:16:05.957Z,69.80
2018-07-22T01:19:30.432Z,70.10
2018-07-22T01:22:54.897Z,70.30
2018-07-22T01:26:19.333Z,71.00
2018-07-22T01:29:43.776Z,71.20
2018-07-22T01:33:08.266Z,71.10
2018-07-22T01:36:32.740Z,71.70
2018-07-22T01:39:57.178Z,71.50
2018-07-22T01:43:21.675Z,71.50
2018-07-22T01:46:46.076Z,72.50
2018-07-22T01:50:10.520Z,72.30
2018-07-22T01:53:34.956Z,72.50
2018-07-22T01:56:59.392Z,72.50
2018-07-22T02:00:23.831Z,72.50
2018-07-22T02:03:48.275Z,71.50
2018-07-22T02:07:12.714Z,71.00
2018-07-22T02:10:37.184Z,71.70
2018-07-22T02:14:01.609Z,72.00
2018-07-22T02:17:26.095Z,71.40
2018-07-22T02:20:50.590Z,71.60
2018-07-22T02:24:21.744Z,72.20
2018-07-22T02:27:46.231Z,72.40
2018-07-22T02:31:10.713Z,72.50
2018-07-22T02:34:35.207Z,72.70
2018-07-22T02:37:59.706Z,73.00
2018-07-22T02:41:24.181Z,73.50
2018-07-22T02:44:48.621Z,74.10
2018-07-22T02:48:13.085Z,73.90
2018-07-22T02:51:37.628Z,74.60
2018-07-22T02:55:02.035Z,74.80
2018-07-22T02:58:26.594Z,74.70
2018-07-22T03:01:51.132Z,75.00
2018-07-22T03:05:15.577Z,74.20
2018-07-22T03:08:40.086Z,74.40
2018-07-22T03:12:04.607Z,74.70
2018-07-22T03:15:29.070Z,75.30
2018-07-22T03:22:17.745Z,75.70
2018-07-22T03:25:42.193Z,75.60
2018-07-22T03:29:06.687Z,75.30
2018-07-22T03:32:31.267Z,75.70
2018-07-22T03:35:55.777Z,75.50
2018-07-22T03:39:20.269Z,76.00
2018-07-22T03:42:44.759Z,74.90
2018-07-22T03:46:09.201Z,75.20
2018-07-22T03:49:33.650Z,75.60
2018-07-22T03:52:58.114Z,75.10
2018-07-22T03:56:22.525Z,75.40
2018-07-22T03:59:47.126Z,75.60
2018-07-22T04:03:11.597Z,76.50
2018-07-22T04:06:36.067Z,76.30
2018-07-22T04:10:00.532Z,76.60
2018-07-22T04:13:24.980Z,76.70
2018-07-22T04:16:49.437Z,76.80
2018-07-22T04:20:13.893Z,76.80
2018-07-22T04:23:38.340Z,77.40
2018-07-22T04:27:02.772Z,77.00
2018-07-22T04:30:27.223Z,77.40
2018-07-22T04:33:51.659Z,76.90
2018-07-22T04:37:16.135Z,76.80
2018-07-22T04:40:40.581Z,77.50
2018-07-22T04:44:05.177Z,77.30
2018-07-22T04:47:29.657Z,77.10
2018-07-22T04:50:54.509Z,76.80
2018-07-22T04:54:18.982Z,76.90
2018-07-22T04:57:43.421Z,77.60
2018-07-22T05:01:07.954Z,77.80
2018-07-22T05:04:32.425Z,77.50
2018-07-22T05:07:56.888Z,77.00
2018-07-22T05:11:21.323Z,77.60
2018-07-22T05:14:45.799Z,77.90
2018-07-22T05:18:10.268Z,77.70
2018-07-22T05:21:34.712Z,78.20
2018-07-22T05:24:59.172Z,77.70
2018-07-22T05:28:23.660Z,77.60
2018-07-22T05:31:48.070Z,77.80
2018-07-22T05:35:12.513Z,78.20
2018-07-22T05:38:36.937Z,77.90
2018-07-22T05:42:01.449Z,77.90
2018-07-22T05:45:25.912Z,78.00
2018-07-22T05:48:50.415Z,77.70
2018-07-22T05:52:14.895Z,78.00
2018-07-22T05:55:39.387Z,78.30
2018-07-22T05:59:03.887Z,77.10
2018-07-22T06:02:28.377Z,77.40
2018-07-22T06:05:51.903Z,76.80
2018-07-22T06:09:16.354Z,76.10
2018-07-22T06:12:40.878Z,75.40
2018-07-22T06:16:05.475Z,75.90
2018-07-22T06:19:30.036Z,75.20
2018-07-22T06:22:54.507Z,74.50
2018-07-22T06:26:18.957Z,73.90
2018-07-22T06:29:43.451Z,73.40
2018-07-22T06:33:07.948Z,73.70
2018-07-22T06:36:32.390Z,72.00
2018-07-22T06:39:56.827Z,72.50
2018-07-22T06:43:21.318Z,72.50
2018-07-22T06:46:45.924Z,70.60
2018-07-22T06:50:10.335Z,69.70
2018-07-22T06:56:59.069Z,68.80
2018-07-22T07:00:23.544Z,68.20
2018-07-22T07:03:47.989Z,67.90
2018-07-22T07:07:12.453Z,67.10
2018-07-22T07:10:36.933Z,64.50
2018-07-22T07:14:01.403Z,63.70
2018-07-22T07:17:25.899Z,62.40
2018-07-22T07:20:50.392Z,63.30
2018-07-22T07:24:14.899Z,61.60
2018-07-22T07:27:39.351Z,61.50
2018-07-22T07:31:03.809Z,61.50
2018-07-22T07:34:28.276Z,61.40
2018-07-22T07:37:52.742Z,61.00
2018-07-22T07:41:17.233Z,60.20
2018-07-22T07:44:41.678Z,58.10
2018-07-22T07:48:06.658Z,58.30
2018-07-22T07:51:31.173Z,56.40
2018-07-22T07:54:55.667Z,56.20
2018-07-22T07:58:20.136Z,56.10
2018-07-22T08:01:44.634Z,55.00
2018-07-22T08:05:09.115Z,55.50
2018-07-22T08:11:57.689Z,55.70
2018-07-22T08:15:22.110Z,54.60
2018-07-22T08:18:46.557Z,54.20
2018-07-22T08:22:11.077Z,55.10
2018-07-22T08:25:35.506Z,53.80
2018-07-22T08:29:28.878Z,53.20
2018-07-22T08:32:53.359Z,53.70
2018-07-22T08:36:17.855Z,51.10
2018-07-22T08:39:42.331Z,51.70
2018-07-22T08:43:06.854Z,52.30
2018-07-22T08:46:31.348Z,53.20
2018-07-22T08:49:55.870Z,52.90
2018-07-22T08:53:21.363Z,51.60
2018-07-22T08:56:45.847Z,50.90
2018-07-22T09:00:10.414Z,49.90
2018-07-22T09:03:34.984Z,49.80
2018-07-22T09:06:59.491Z,49.00
2018-07-22T09:10:24.008Z,48.50
2018-07-22T09:13:48.548Z,47.10
2018-07-22T09:17:13.075Z,46.00
2018-07-22T09:20:37.644Z,46.10
2018-07-22T09:24:02.159Z,45.30
2018-07-22T09:27:26.642Z,45.40
2018-07-22T09:30:51.170Z,45.30
2018-07-22T09:34:15.745Z,43.50
2018-07-22T09:37:40.276Z,43.10
2018-07-22T09:41:04.793Z,43.00
2018-07-22T09:44:29.294Z,44.20
2018-07-22T09:47:53.773Z,42.60
2018-07-22T09:51:18.344Z,42.80
2018-07-22T09:54:42.884Z,41.20
2018-07-22T09:58:07.377Z,40.60
2018-07-22T10:01:31.930Z,40.10
2018-07-22T10:04:56.441Z,39.00
2018-07-22T10:08:20.986Z,39.00
2018-07-22T10:11:45.526Z,37.60
2018-07-22T10:15:10.505Z,36.90
2018-07-22T10:18:35.006Z,37.10
2018-07-22T10:21:59.617Z,34.00
2018-07-22T10:25:24.208Z,33.00
2018-07-22T10:28:48.723Z,33.80
2018-07-22T10:32:13.254Z,33.50
2018-07-22T10:35:37.755Z,32.50
2018-07-22T10:39:02.276Z,32.60
2018-07-22T10:42:26.876Z,33.60
2018-07-22T10:45:51.395Z,31.40
2018-07-22T10:49:15.923Z,31.20
2018-07-22T10:52:40.400Z,32.60
2018-07-22T10:56:04.955Z,30.90
2018-07-22T10:59:29.459Z,30.30
2018-07-22T11:02:54.039Z,30.00
2018-07-22T11:06:18.534Z,29.30
2018-07-22T11:09:43.003Z,30.00
2018-07-22T11:13:07.511Z,29.20
2018-07-22T11:16:31.969Z,28.40
2018-07-22T11:19:56.504Z,29.10
2018-07-22T11:23:20.974Z,31.40
2018-07-22T11:26:45.446Z,32.50
2018-07-22T11:30:09.911Z,31.50
2018-07-22T11:33:34.410Z,31.20
2018-07-22T11:36:58.881Z,29.50
2018-07-22T11:40:23.377Z,28.40
2018-07-22T11:43:47.869Z,26.60
2018-07-22T11:47:12.340Z,26.40
2018-07-22T11:50:36.847Z,25.10
2018-07-22T11:54:01.292Z,26.50
2018-07-22T11:57:25.727Z,27.10
2018-07-22T12:00:50.546Z,28.90
2018-07-22T12:04:14.971Z,29.80
2018-07-22T12:07:39.558Z,30.20
2018-07-22T12:11:04.058Z,28.40
2018-07-22T12:14:28.533Z,27.50
2018-07-22T12:17:53.063Z,28.10
2018-07-22T12:21:39.350Z,27.00
2018-07-22T12:25:03.979Z,27.30
2018-07-22T12:28:28.435Z,29.40
2018-07-22T12:31:52.912Z,31.50
2018-07-22T12:35:17.393Z,32.00
2018-07-22T12:38:41.845Z,33.50
2018-07-22T12:42:06.732Z,31.90
2018-07-22T12:45:31.206Z,27.40
2018-07-22T12:48:55.677Z,27.90
2018-07-22T12:52:20.208Z,29.20
2018-07-22T12:55:44.664Z,28.60
2018-07-22T12:59:09.145Z,28.20
2018-07-22T13:02:33.587Z,29.40
2018-07-22T13:05:58.069Z,30.20
2018-07-22T13:09:22.553Z,30.30
2018-07-22T13:12:47.113Z,32.60
2018-07-22T13:16:11.611Z,28.60
2018-07-22T13:19:36.038Z,26.20
2018-07-22T13:23:00.507Z,25.60
2018-07-22T13:26:24.977Z,28.00
2018-07-22T13:29:49.449Z,30.80
2018-07-22T13:33:13.914Z,31.40
2018-07-22T13:36:38.396Z,32.00
2018-07-22T13:40:02.888Z,33.00
2018-07-22T13:43:27.422Z,32.50
2018-07-22T13:46:51.903Z,29.10
2018-07-22T13:50:16.459Z,28.60
2018-07-22T13:53:40.983Z,25.30
2018-07-22T13:57:05.477Z,23.80
2018-07-22T14:00:29.938Z,21.60
2018-07-22T14:03:54.462Z,23.20
2018-07-22T14:07:19.062Z,27.00
2018-07-22T14:10:43.490Z,27.70
2018-07-22T14:14:08.546Z,26.60
2018-07-22T14:17:33.034Z,25.20
2018-07-22T14:20:57.573Z,25.90
2018-07-22T14:24:22.083Z,28.00
2018-07-22T14:27:46.563Z,27.90
2018-07-22T14:31:11.114Z,27.10
2018-07-22T14:34:35.599Z,25.20
2018-07-22T14:38:00.083Z,27.50
2018-07-22T14:41:24.837Z,28.40
2018-07-22T14:44:49.282Z,28.10
2018-07-22T14:48:13.784Z,29.60
2018-07-22T14:51:38.319Z,29.70
2018-07-22T14:55:02.784Z,29.90
2018-07-22T14:58:27.253Z,29.80
2018-07-22T15:01:51.708Z,30.80
2018-07-22T15:05:16.222Z,30.40
2018-07-22T15:08:40.862Z,29.90
2018-07-22T15:12:05.391Z,30.00
2018-07-22T15:15:29.872Z,30.10
2018-07-22T15:18:54.392Z,30.10
2018-07-22T15:22:18.893Z,28.30
2018-07-22T15:25:43.365Z,26.70
2018-07-22T15:29:07.895Z,26.10
2018-07-22T15:32:32.366Z,24.30
2018-07-22T15:35:56.842Z,23.30
2018-07-22T15:39:21.285Z,21.10
2018-07-22T15:42:45.808Z,19.20
2018-07-22T15:46:10.254Z,21.60
2018-07-22T15:49:34.799Z,24.60
2018-07-22T15:52:59.252Z,26.10
2018-07-22T15:56:23.724Z,27.40
2018-07-22T15:59:48.213Z,29.30
2018-07-22T16:03:12.667Z,30.20
2018-07-22T16:06:37.132Z,30.80
2018-07-22T16:10:01.597Z,31.50
2018-07-22T16:13:26.124Z,33.40
2018-07-22T16:16:50.579Z,32.60
2018-07-22T16:20:15.099Z,32.50
2018-07-22T16:23:39.700Z,34.40
2018-07-22T16:27:04.185Z,32.80
2018-07-22T16:30:28.769Z,32.90
2018-07-22T16:33:53.272Z,33.00
2018-07-22T16:37:17.733Z,31.00
2018-07-22T16:40:42.253Z,29.40
2018-07-22T16:44:07.284Z,28.90
2018-07-22T16:47:31.727Z,28.50
2018-07-22T16:50:56.185Z,28.10
2018-07-22T16:54:20.624Z,27.30
2018-07-22T16:57:45.050Z,29.50
2018-07-22T17:01:09.514Z,29.90
2018-07-22T17:04:33.978Z,31.30
2018-07-22T17:07:58.482Z,31.10
2018-07-22T17:11:23.027Z,31.10
2018-07-22T17:14:47.477Z,30.00
2018-07-22T17:21:36.076Z,31.40
2018-07-22T17:25:00.515Z,32.70
2018-07-22T17:28:25.016Z,32.90
2018-07-22T17:31:49.476Z,33.90
2018-07-22T17:35:13.938Z,33.20
2018-07-22T17:38:38.397Z,33.90
2018-07-22T17:42:02.866Z,34.50
2018-07-22T17:45:27.327Z,36.70
2018-07-22T17:48:51.787Z,34.70
2018-07-22T17:52:16.202Z,35.00
2018-07-22T17:55:40.683Z,35.60
2018-07-22T17:59:05.185Z,35.60
2018-07-22T18:02:29.650Z,34.20
2018-07-22T18:05:54.134Z,34.20
2018-07-22T18:09:18.587Z,34.80
2018-07-22T18:12:43.049Z,35.40
2018-07-22T18:16:07.573Z,35.40
2018-07-22T18:22:56.202Z,38.20
2018-07-22T18:26:20.714Z,36.80
2018-07-22T18:29:45.185Z,37.20
2018-07-22T18:33:09.653Z,37.80
2018-07-22T18:36:34.108Z,38.00
2018-07-22T18:39:58.565Z,38.20
2018-07-22T18:43:23.054Z,38.10
2018-07-22T18:46:47.557Z,38.50
2018-07-22T18:50:12.229Z,40.70
2018-07-22T18:53:36.762Z,41.50
2018-07-22T18:57:01.211Z,41.50
2018-07-22T19:00:25.719Z,41.50
2018-07-22T19:03:50.275Z,41.40
2018-07-22T19:07:14.724Z,41.00
2018-07-22T19:10:39.179Z,42.10
2018-07-22T19:14:03.664Z,42.80
2018-07-22T19:17:28.118Z,43.60
2018-07-22T19:20:52.593Z,44.40
2018-07-22T19:24:17.071Z,44.20
2018-07-22T19:27:41.573Z,44.50
2018-07-22T19:31:06.086Z,44.30
2018-07-22T19:34:30.544Z,44.00
2018-07-22T19:37:55.225Z,45.00
2018-07-22T19:41:19.704Z,45.30
2018-07-22T19:44:44.174Z,46.80
2018-07-22T19:48:08.744Z,47.60
2018-07-22T19:51:33.085Z,48.10
2018-07-22T19:54:57.528Z,48.20
2018-07-22T19:58:21.975Z,48.60
2018-07-22T20:01:46.447Z,50.00
2018-07-22T20:05:11.753Z,49.80
2018-07-22T20:08:36.252Z,50.60
2018-07-22T20:12:00.702Z,50.90
2018-07-22T20:15:25.173Z,51.20
2018-07-22T20:18:49.600Z,52.50
2018-07-22T20:22:14.063Z,52.70
2018-07-22T20:25:38.533Z,51.20
2018-07-22T20:29:03.062Z,53.50
2018-07-22T20:32:27.509Z,53.40
2018-07-22T20:35:51.968Z,53.90
2018-07-22T20:39:16.448Z,54.20
2018-07-22T20:42:40.911Z,53.70
2018-07-22T20:46:05.400Z,54.60
2018-07-22T20:49:29.842Z,54.30
2018-07-22T20:52:54.283Z,55.20
2018-07-22T20:56:18.847Z,55.50
2018-07-22T20:59:43.339Z,55.00
2018-07-22T21:03:07.770Z,56.00
2018-07-22T21:06:32.292Z,56.70
2018-07-22T21:09:56.734Z,56.50
2018-07-22T21:13:28.040Z,56.60
2018-07-22T21:16:52.497Z,56.80
2018-07-22T21:20:18.031Z,57.10
2018-07-22T21:23:42.497Z,57.00
2018-07-22T21:27:06.990Z,57.20
2018-07-22T21:30:31.431Z,57.60
2018-07-22T21:33:55.922Z,58.20
2018-07-22T21:37:20.687Z,58.10
2018-07-22T21:40:45.154Z,58.70
2018-07-22T21:44:09.608Z,59.40
2018-07-22T21:47:34.217Z,59.50
2018-07-22T21:50:58.695Z,60.30
2018-07-22T21:54:23.160Z,60.90
2018-07-22T21:57:47.636Z,61.90
2018-07-22T22:01:12.164Z,62.00
2018-07-22T22:04:36.662Z,62.20
2018-07-22T22:08:01.138Z,62.10
2018-07-22T22:11:25.632Z,63.00
2018-07-22T22:14:50.078Z,63.20
2018-07-22T22:18:14.590Z,63.60
2018-07-22T22:21:39.084Z,64.10
2018-07-22T22:25:03.630Z,64.50
2018-07-22T22:28:28.093Z,65.30
2018-07-22T22:31:52.583Z,65.60
2018-07-22T22:35:17.070Z,65.90
2018-07-22T22:38:41.524Z,65.80
2018-07-22T22:42:05.982Z,65.90
2018-07-22T22:45:30.447Z,67.00
2018-07-22T22:48:54.887Z,67.20
2018-07-22T22:52:19.356Z,67.50
2018-07-22T22:55:43.822Z,68.10
2018-07-22T22:59:20.684Z,67.40
2018-07-22T23:02:45.214Z,67.20
2018-07-22T23:06:09.692Z,67.50
2018-07-22T23:09:34.146Z,67.50
2018-07-22T23:12:58.628Z,67.70
2018-07-22T23:16:23.077Z,67.60
2018-07-22T23:19:47.663Z,68.40
2018-07-22T23:23:12.134Z,68.90
2018-07-22T23:26:36.631Z,68.20
2018-07-22T23:30:01.110Z,69.60
2018-07-22T23:33:25.506Z,69.00
2018-07-22T23:36:49.974Z,69.80
2018-07-22T23:40:14.464Z,70.40
2018-07-22T23:43:39.094Z,69.70
2018-07-22T23:47:03.524Z,69.30
2018-07-22T23:50:27.984Z,70.20
2018-07-22T23:53:52.416Z,69.60
2018-07-22T23:57:16.876Z,69.60
